createdAt,value
2022-09-03T00:00:30.358Z,81.35
2022-09-03T00:01:38.239Z,81.29
2022-09-03T00:02:48.669Z,81.37
2022-09-03T00:04:11.993Z,81.48
2022-09-03T00:05:16.877Z,81.58
2022-09-03T00:06:21.887Z,81.68
2022-09-03T00:07:39.807Z,81.95
2022-09-03T00:09:04.712Z,81.91
2022-09-03T00:10:16.241Z,81.79
2022-09-03T00:11:32.787Z,81.89
2022-09-03T00:12:39.449Z,81.93
2022-09-03T00:13:55.619Z,81.95
2022-09-03T00:15:15.217Z,81.95
2022-09-03T00:16:18.407Z,81.85
2022-09-03T00:17:23.049Z,81.79
2022-09-03T00:18:28.367Z,81.70
2022-09-03T00:19:34.237Z,81.70
2022-09-03T00:20:57.621Z,81.58
2022-09-03T00:22:01.830Z,81.40
2022-09-03T00:23:07.958Z,81.39
2022-09-03T00:24:14.111Z,81.38
2022-09-03T00:25:39.661Z,81.50
2022-09-03T00:26:44.902Z,81.45
2022-09-03T00:27:51.094Z,81.35
2022-09-03T00:28:59.865Z,81.30
2022-09-03T00:30:04.130Z,81.26
2022-09-03T00:31:07.683Z,81.04
2022-09-03T00:32:22.813Z,81.43
2022-09-03T00:33:26.912Z,81.50
2022-09-03T00:34:34.439Z,81.56
2022-09-03T00:35:47.775Z,81.68
2022-09-03T00:36:50.144Z,81.72
2022-09-03T00:37:53.140Z,81.60
2022-09-03T00:38:54.800Z,81.59
2022-09-03T00:39:56.541Z,81.69
2022-09-03T00:41:33.739Z,81.98
2022-09-03T00:42:39.406Z,81.88
2022-09-03T00:43:46.357Z,82.04
2022-09-03T00:45:11.221Z,82.12
2022-09-03T00:46:27.375Z,82.09
2022-09-03T00:48:04.603Z,82.27
2022-09-03T00:49:24.850Z,82.07
2022-09-03T00:50:45.477Z,81.92
2022-09-03T00:51:51.765Z,81.92
2022-09-03T00:53:05.207Z,81.81
2022-09-03T00:54:33.108Z,81.81
2022-09-03T00:55:58.871Z,82.01
2022-09-03T00:57:13.866Z,82.17
2022-09-03T00:58:18.202Z,82.07
2022-09-03T00:59:59.127Z,82.30
2022-09-03T01:01:03.243Z,82.17
2022-09-03T01:02:21.157Z,81.90
2022-09-03T01:03:43.198Z,82.11
2022-09-03T01:05:07.420Z,82.28
2022-09-03T01:06:18.918Z,82.52
2022-09-03T01:07:39.158Z,82.13
2022-09-03T01:09:03.140Z,82.37
2022-09-03T01:10:26.941Z,82.43
2022-09-03T01:12:13.610Z,82.05
2022-09-03T01:13:20.550Z,82.37
2022-09-03T01:14:41.248Z,82.53
2022-09-03T01:15:59.645Z,82.44
2022-09-03T01:17:17.146Z,82.69
2022-09-03T01:18:22.089Z,82.51
2022-09-03T01:19:45.990Z,82.35
2022-09-03T01:20:57.091Z,82.12
2022-09-03T01:22:20.542Z,82.46
2022-09-03T01:23:22.113Z,82.23
2022-09-03T01:25:11.702Z,82.23
2022-09-03T01:26:28.297Z,82.22
2022-09-03T01:27:52.900Z,81.87
2022-09-03T01:29:06.860Z,81.86
2022-09-03T01:30:18.090Z,82.37
2022-09-03T01:31:26.850Z,82.49
2022-09-03T01:32:53.326Z,82.44
2022-09-03T01:34:15.908Z,82.54
2022-09-03T01:35:24.462Z,82.61
2022-09-03T01:36:32.415Z,82.59
2022-09-03T01:38:00.584Z,82.56
2022-09-03T01:39:04.066Z,83.16
2022-09-03T01:40:19.223Z,83.12
2022-09-03T01:42:04.225Z,83.12
2022-09-03T01:43:34.111Z,83.21
2022-09-03T01:44:58.458Z,83.30
2022-09-03T01:46:15.326Z,83.17
2022-09-03T01:47:41.569Z,83.26
2022-09-03T01:48:46.596Z,83.26
2022-09-03T01:49:57.998Z,83.20
2022-09-03T01:51:09.255Z,83.34
2022-09-03T01:52:21.201Z,83.35
2022-09-03T01:53:44.277Z,83.47
2022-09-03T01:55:07.762Z,83.36
2022-09-03T01:56:18.205Z,83.38
2022-09-03T01:57:42.074Z,83.33
2022-09-03T01:59:21.289Z,83.18
2022-09-03T02:00:23.158Z,83.31
2022-09-03T02:01:46.588Z,83.70
2022-09-03T02:02:51.212Z,83.54
2022-09-03T02:04:00.096Z,83.73
2022-09-03T02:05:25.395Z,83.71
2022-09-03T02:06:28.057Z,83.89
2022-09-03T02:07:38.092Z,83.76
2022-09-03T02:08:40.177Z,83.95
2022-09-03T02:09:41.784Z,83.90
2022-09-03T02:10:56.708Z,84.11
2022-09-03T02:12:12.021Z,83.83
2022-09-03T02:13:25.923Z,83.86
2022-09-03T02:14:27.596Z,83.92
2022-09-03T02:15:31.219Z,83.80
2022-09-03T02:16:33.539Z,83.69
2022-09-03T02:17:35.835Z,83.75
2022-09-03T02:18:58.256Z,83.73
2022-09-03T02:20:01.206Z,83.78
2022-09-03T02:21:02.948Z,83.88
2022-09-03T02:22:04.633Z,83.78
2022-09-03T02:23:06.284Z,83.82
2022-09-03T02:24:08.617Z,83.55
2022-09-03T02:25:11.163Z,83.48
2022-09-03T02:26:13.580Z,83.31
2022-09-03T02:27:15.270Z,83.63
2022-09-03T02:28:17.578Z,83.57
2022-09-03T02:29:19.528Z,83.50
2022-09-03T02:30:21.579Z,83.45
2022-09-03T02:31:23.230Z,83.45
2022-09-03T02:32:24.923Z,83.54
2022-09-03T02:33:26.557Z,83.43
2022-09-03T02:34:28.384Z,83.52
2022-09-03T02:35:30.042Z,83.61
2022-09-03T02:36:36.341Z,83.61
2022-09-03T02:37:38.025Z,83.69
2022-09-03T02:38:41.835Z,83.85
2022-09-03T02:39:43.576Z,83.89
2022-09-03T02:40:45.848Z,83.94
2022-09-03T02:41:51.907Z,83.75
2022-09-03T02:42:53.597Z,83.85
2022-09-03T02:43:59.547Z,83.86
2022-09-03T02:45:06.904Z,84.28
2022-09-03T02:46:10.293Z,84.31
2022-09-03T02:47:12.031Z,84.20
2022-09-03T02:48:13.713Z,84.43
2022-09-03T02:49:15.520Z,84.34
2022-09-03T02:50:17.179Z,84.25
2022-09-03T02:51:18.848Z,84.40
2022-09-03T02:52:20.477Z,84.16
2022-09-03T02:53:22.388Z,84.12
2022-09-03T02:54:24.059Z,84.31
2022-09-03T02:55:25.715Z,84.43
2022-09-03T02:56:27.956Z,84.35
2022-09-03T02:57:29.595Z,84.32
2022-09-03T02:58:31.722Z,84.35
2022-09-03T02:59:33.535Z,84.31
2022-09-03T03:00:36.274Z,84.29
2022-09-03T03:01:38.000Z,84.23
2022-09-03T03:02:39.876Z,83.92
2022-09-03T03:03:41.512Z,83.86
2022-09-03T03:04:43.191Z,83.85
2022-09-03T03:05:49.328Z,83.87
2022-09-03T03:06:51.021Z,83.90
2022-09-03T03:07:52.687Z,83.70
2022-09-03T03:08:55.964Z,83.88
2022-09-03T03:09:57.669Z,83.84
2022-09-03T03:11:00.769Z,83.48
2022-09-03T03:12:02.649Z,83.80
2022-09-03T03:13:04.374Z,84.08
2022-09-03T03:14:06.001Z,83.76
2022-09-03T03:15:07.923Z,83.74
2022-09-03T03:16:09.658Z,83.56
2022-09-03T03:17:11.485Z,83.66
2022-09-03T03:18:14.109Z,83.46
2022-09-03T03:19:15.739Z,83.60
2022-09-03T03:20:17.333Z,83.71
2022-09-03T03:21:19.126Z,83.63
2022-09-03T03:22:20.738Z,83.58
2022-09-03T03:23:22.376Z,83.48
2022-09-03T03:24:24.001Z,83.56
2022-09-03T03:25:25.671Z,83.50
2022-09-03T03:26:27.341Z,83.78
2022-09-03T03:27:29.613Z,83.76
2022-09-03T03:28:34.415Z,83.90
2022-09-03T03:29:36.380Z,83.70
2022-09-03T03:30:39.960Z,83.86
2022-09-03T03:31:41.679Z,84.01
2022-09-03T03:32:43.352Z,84.23
2022-09-03T03:33:45.079Z,84.05
2022-09-03T03:34:46.752Z,83.94
2022-09-03T03:35:48.361Z,84.06
2022-09-03T03:36:49.982Z,84.31
2022-09-03T03:37:51.638Z,84.06
2022-09-03T03:38:54.367Z,84.08
2022-09-03T03:39:56.055Z,83.96
2022-09-03T03:40:57.766Z,84.16
2022-09-03T03:41:59.370Z,84.00
2022-09-03T03:43:01.069Z,83.89
2022-09-03T03:44:04.848Z,83.82
2022-09-03T03:45:06.778Z,83.76
2022-09-03T03:46:08.490Z,83.85
2022-09-03T03:47:10.191Z,83.59
2022-09-03T03:48:11.860Z,83.66
2022-09-03T03:49:13.480Z,83.59
2022-09-03T03:50:15.466Z,83.58
2022-09-03T03:51:17.272Z,84.02
2022-09-03T03:52:18.941Z,83.93
2022-09-03T03:53:20.560Z,83.98
2022-09-03T03:54:22.606Z,84.30
2022-09-03T03:55:27.151Z,84.30
2022-09-03T03:56:28.857Z,84.41
2022-09-03T03:57:31.154Z,84.30
2022-09-03T03:58:33.182Z,84.35
2022-09-03T03:59:34.808Z,84.38
2022-09-03T04:00:37.379Z,84.31
2022-09-03T04:01:39.038Z,84.27
2022-09-03T04:02:40.704Z,84.26
2022-09-03T04:03:42.854Z,84.22
2022-09-03T04:04:44.499Z,84.33
2022-09-03T04:05:59.904Z,84.48
2022-09-03T04:07:01.591Z,84.24
2022-09-03T04:08:03.446Z,84.39
2022-09-03T04:09:05.115Z,84.47
2022-09-03T04:10:07.539Z,84.58
2022-09-03T04:11:14.083Z,84.55
2022-09-03T04:12:15.800Z,84.77
2022-09-03T04:13:17.665Z,84.61
2022-09-03T04:14:19.332Z,84.57
2022-09-03T04:15:20.969Z,84.64
2022-09-03T04:16:24.088Z,84.64
2022-09-03T04:17:26.349Z,84.57
2022-09-03T04:18:28.013Z,84.81
2022-09-03T04:19:30.345Z,84.42
2022-09-03T04:20:32.065Z,84.69
2022-09-03T04:21:33.728Z,84.34
2022-09-03T04:22:35.343Z,84.33
2022-09-03T04:23:39.005Z,84.19
2022-09-03T04:24:40.617Z,84.13
2022-09-03T04:25:42.401Z,83.99
2022-09-03T04:26:44.056Z,83.90
2022-09-03T04:27:45.654Z,83.81
2022-09-03T04:28:47.675Z,83.53
2022-09-03T04:29:49.293Z,83.76
2022-09-03T04:30:50.955Z,83.64
2022-09-03T04:32:11.447Z,83.62
2022-09-03T04:33:16.161Z,83.84
2022-09-03T04:34:18.151Z,83.92
2022-09-03T04:35:21.104Z,83.92
2022-09-03T04:36:24.386Z,83.90
2022-09-03T04:37:26.010Z,83.95
2022-09-03T04:38:29.600Z,83.91
2022-09-03T04:39:31.351Z,83.88
2022-09-03T04:40:33.287Z,83.81
2022-09-03T04:41:35.038Z,83.95
2022-09-03T04:42:36.694Z,83.91
2022-09-03T04:43:38.380Z,83.98
2022-09-03T04:44:41.295Z,84.02
2022-09-03T04:45:42.994Z,84.10
2022-09-03T04:46:47.854Z,84.12
2022-09-03T04:48:02.272Z,84.10
2022-09-03T04:49:04.025Z,84.03
2022-09-03T04:50:06.537Z,84.10
2022-09-03T04:51:13.473Z,84.18
2022-09-03T04:52:15.089Z,84.08
2022-09-03T04:53:16.934Z,84.03
2022-09-03T04:54:18.592Z,84.01
2022-09-03T04:55:20.217Z,84.31
2022-09-03T04:56:23.955Z,84.22
2022-09-03T04:57:25.625Z,84.40
2022-09-03T04:58:27.285Z,84.45
2022-09-03T04:59:29.290Z,84.13
2022-09-03T05:00:30.916Z,84.17
2022-09-03T05:01:33.646Z,83.88
2022-09-03T05:02:35.332Z,83.80
2022-09-03T05:03:39.076Z,83.79
2022-09-03T05:04:40.763Z,83.94
2022-09-03T05:05:42.625Z,83.68
2022-09-03T05:06:45.424Z,83.12
2022-09-03T05:07:47.086Z,82.73
2022-09-03T05:08:49.691Z,81.81
2022-09-03T05:09:52.152Z,80.50
2022-09-03T05:11:00.558Z,78.40
2022-09-03T05:12:02.277Z,76.51
2022-09-03T05:13:05.175Z,73.99
2022-09-03T05:14:06.888Z,72.69
2022-09-03T05:15:08.818Z,72.28
2022-09-03T05:16:11.262Z,72.03
2022-09-03T05:17:12.909Z,71.60
2022-09-03T05:18:15.100Z,71.34
2022-09-03T05:19:16.859Z,69.86
2022-09-03T05:20:18.533Z,68.34
2022-09-03T05:21:20.240Z,67.68
2022-09-03T05:22:21.869Z,67.22
2022-09-03T05:23:23.532Z,66.56
2022-09-03T05:24:25.170Z,66.19
2022-09-03T05:25:27.196Z,65.69
2022-09-03T05:26:33.187Z,66.30
2022-09-03T05:27:34.826Z,66.49
2022-09-03T05:28:37.599Z,66.05
2022-09-03T05:29:39.345Z,65.85
2022-09-03T05:30:41.246Z,66.13
2022-09-03T05:31:42.883Z,65.59
2022-09-03T05:32:44.574Z,65.05
2022-09-03T05:33:53.697Z,63.62
2022-09-03T05:34:55.625Z,62.52
2022-09-03T05:36:04.647Z,61.17
2022-09-03T05:37:06.337Z,60.13
2022-09-03T05:38:08.806Z,58.87
2022-09-03T05:39:10.406Z,57.97
2022-09-03T05:40:12.137Z,57.75
2022-09-03T05:41:14.763Z,56.82
2022-09-03T05:42:16.415Z,56.39
2022-09-03T05:43:18.049Z,56.38
2022-09-03T05:44:23.183Z,54.83
2022-09-03T05:45:25.586Z,54.09
2022-09-03T05:46:32.374Z,52.91
2022-09-03T05:47:34.249Z,53.21
2022-09-03T05:48:36.582Z,54.67
2022-09-03T05:49:38.483Z,55.95
2022-09-03T05:50:40.144Z,56.00
2022-09-03T05:51:42.629Z,57.62
2022-09-03T05:52:44.264Z,58.19
2022-09-03T05:53:47.808Z,58.17
2022-09-03T05:54:49.556Z,58.10
2022-09-03T05:55:58.186Z,59.54
2022-09-03T05:56:59.795Z,58.67
2022-09-03T05:58:01.396Z,59.23
2022-09-03T05:59:06.939Z,60.43
2022-09-03T06:00:09.850Z,60.55
2022-09-03T06:01:15.785Z,60.77
2022-09-03T06:02:19.850Z,60.58
2022-09-03T06:03:21.837Z,61.56
2022-09-03T06:04:24.779Z,61.55
2022-09-03T06:05:26.629Z,62.27
2022-09-03T06:06:29.322Z,61.60
2022-09-03T06:07:31.255Z,62.22
2022-09-03T06:08:33.578Z,63.54
2022-09-03T06:09:35.186Z,62.98
2022-09-03T06:10:41.034Z,64.21
2022-09-03T06:11:43.129Z,62.61
2022-09-03T06:12:49.800Z,63.16
2022-09-03T06:13:51.494Z,63.08
2022-09-03T06:14:53.184Z,64.69
2022-09-03T06:15:58.105Z,63.49
2022-09-03T06:16:59.915Z,63.14
2022-09-03T06:18:01.624Z,62.63
2022-09-03T06:19:10.334Z,63.42
2022-09-03T06:20:12.025Z,63.11
2022-09-03T06:21:15.119Z,63.14
2022-09-03T06:22:17.258Z,61.99
2022-09-03T06:23:18.886Z,62.46
2022-09-03T06:24:26.508Z,62.30
2022-09-03T06:25:30.306Z,62.34
2022-09-03T06:26:31.934Z,61.69
2022-09-03T06:27:33.793Z,62.19
2022-09-03T06:28:38.147Z,62.76
2022-09-03T06:29:40.016Z,62.91
2022-09-03T06:30:42.024Z,63.17
2022-09-03T06:31:43.829Z,61.37
2022-09-03T06:32:50.530Z,60.37
2022-09-03T06:33:54.741Z,61.06
2022-09-03T06:34:56.564Z,61.76
2022-09-03T06:35:59.462Z,61.10
2022-09-03T06:37:01.754Z,61.34
2022-09-03T06:38:03.399Z,61.49
2022-09-03T06:39:05.530Z,61.65
2022-09-03T06:40:13.729Z,61.33
2022-09-03T06:41:23.962Z,62.45
2022-09-03T06:42:25.599Z,62.29
2022-09-03T06:43:27.264Z,62.09
2022-09-03T06:44:28.989Z,61.82
2022-09-03T06:45:30.921Z,61.75
2022-09-03T06:46:36.186Z,61.46
2022-09-03T06:47:37.801Z,60.90
2022-09-03T06:48:39.642Z,60.72
2022-09-03T06:49:41.612Z,60.49
2022-09-03T06:50:43.508Z,60.64
2022-09-03T06:51:45.285Z,61.06
2022-09-03T06:52:53.165Z,62.17
2022-09-03T06:53:59.535Z,61.73
2022-09-03T06:55:01.241Z,62.24
2022-09-03T06:56:13.342Z,62.58
2022-09-03T06:57:15.006Z,61.96
2022-09-03T06:58:17.013Z,61.75
2022-09-03T06:59:18.621Z,62.24
2022-09-03T07:00:21.893Z,61.69
2022-09-03T07:01:25.951Z,61.86
2022-09-03T07:02:27.773Z,61.74
2022-09-03T07:03:29.898Z,61.98
2022-09-03T07:04:34.756Z,62.89
2022-09-03T07:05:37.658Z,62.21
2022-09-03T07:06:40.563Z,62.51
2022-09-03T07:07:42.166Z,60.89
2022-09-03T07:08:43.849Z,60.56
2022-09-03T07:09:48.389Z,60.55
2022-09-03T07:10:51.331Z,60.72
2022-09-03T07:11:53.049Z,61.13
2022-09-03T07:12:56.041Z,61.40
2022-09-03T07:13:58.242Z,60.63
2022-09-03T07:14:59.897Z,60.36
2022-09-03T07:16:03.925Z,60.71
2022-09-03T07:17:05.595Z,60.05
2022-09-03T07:18:07.261Z,60.97
2022-09-03T07:19:09.346Z,60.93
2022-09-03T07:20:10.988Z,59.76
2022-09-03T07:21:16.967Z,60.02
2022-09-03T07:22:18.574Z,60.80
2022-09-03T07:23:20.201Z,59.66
2022-09-03T07:24:22.491Z,59.74
2022-09-03T07:25:26.223Z,58.26
2022-09-03T07:26:30.414Z,59.08
2022-09-03T07:27:32.068Z,59.36
2022-09-03T07:28:35.363Z,59.47
2022-09-03T07:29:37.011Z,59.47
2022-09-03T07:30:38.688Z,59.20
2022-09-03T07:31:41.650Z,59.50
2022-09-03T07:32:43.324Z,58.54
2022-09-03T07:33:45.008Z,58.61
2022-09-03T07:34:46.776Z,58.46
2022-09-03T07:35:48.518Z,58.92
2022-09-03T07:36:51.941Z,58.73
2022-09-03T07:37:55.236Z,59.10
2022-09-03T07:38:57.851Z,58.89
2022-09-03T07:39:59.720Z,59.37
2022-09-03T07:41:04.424Z,58.45
2022-09-03T07:42:08.809Z,57.37
2022-09-03T07:43:10.628Z,57.59
2022-09-03T07:44:13.266Z,57.66
2022-09-03T07:45:14.944Z,57.35
2022-09-03T07:46:23.803Z,56.67
2022-09-03T07:47:27.010Z,56.25
2022-09-03T07:48:28.807Z,56.97
2022-09-03T07:49:30.436Z,57.28
2022-09-03T07:50:37.770Z,57.74
2022-09-03T07:51:39.591Z,57.55
2022-09-03T07:52:41.434Z,57.58
2022-09-03T07:53:43.357Z,58.09
2022-09-03T07:54:44.993Z,57.73
2022-09-03T07:55:48.127Z,57.04
2022-09-03T07:56:49.791Z,57.11
2022-09-03T07:57:56.590Z,58.03
2022-09-03T07:58:58.565Z,55.97
2022-09-03T08:00:00.241Z,56.16
2022-09-03T08:01:06.459Z,56.09
2022-09-03T08:02:08.135Z,56.52
2022-09-03T08:03:10.752Z,56.45
2022-09-03T08:04:12.411Z,55.83
2022-09-03T08:05:14.023Z,55.18
2022-09-03T08:06:16.272Z,54.67
2022-09-03T08:07:17.999Z,54.81
2022-09-03T08:08:19.934Z,54.95
2022-09-03T08:09:21.562Z,55.63
2022-09-03T08:10:24.797Z,54.71
2022-09-03T08:11:26.671Z,54.64
2022-09-03T08:12:28.296Z,54.46
2022-09-03T08:13:29.949Z,54.87
2022-09-03T08:14:31.827Z,55.39
2022-09-03T08:15:34.400Z,55.28
2022-09-03T08:16:41.915Z,54.96
2022-09-03T08:17:44.886Z,55.13
2022-09-03T08:18:47.627Z,55.69
2022-09-03T08:19:49.215Z,55.42
2022-09-03T08:20:50.871Z,55.60
2022-09-03T08:21:52.477Z,56.26
2022-09-03T08:23:01.200Z,55.42
2022-09-03T08:24:03.120Z,55.25
2022-09-03T08:25:05.024Z,55.47
2022-09-03T08:26:07.169Z,55.69
2022-09-03T08:27:09.260Z,56.13
2022-09-03T08:28:10.917Z,55.84
2022-09-03T08:29:12.505Z,55.87
2022-09-03T08:30:14.126Z,55.83
2022-09-03T08:31:18.657Z,55.72
2022-09-03T08:32:20.464Z,55.21
2022-09-03T08:33:37.166Z,55.89
2022-09-03T08:34:38.787Z,55.65
2022-09-03T08:35:40.427Z,54.78
2022-09-03T08:36:42.072Z,56.39
2022-09-03T08:37:43.704Z,56.30
2022-09-03T08:38:46.449Z,55.96
2022-09-03T08:39:48.125Z,56.64
2022-09-03T08:40:50.176Z,55.99
2022-09-03T08:41:52.613Z,56.31
2022-09-03T08:43:26.792Z,56.53
2022-09-03T08:44:38.094Z,56.02
2022-09-03T08:45:39.770Z,57.10
2022-09-03T08:46:49.084Z,56.70
2022-09-03T08:47:57.256Z,57.10
2022-09-03T08:48:59.887Z,55.12
2022-09-03T08:50:04.513Z,55.72
2022-09-03T08:51:06.162Z,56.41
2022-09-03T08:52:22.172Z,55.70
2022-09-03T08:53:34.129Z,55.59
2022-09-03T08:54:35.762Z,55.72
2022-09-03T08:55:55.213Z,55.13
2022-09-03T08:56:57.244Z,55.19
2022-09-03T08:58:28.093Z,54.49
2022-09-03T08:59:33.305Z,54.63
2022-09-03T09:00:43.705Z,54.26
2022-09-03T09:01:52.293Z,54.53
2022-09-03T09:03:31.547Z,54.93
2022-09-03T09:04:45.240Z,54.24
2022-09-03T09:05:51.871Z,55.18
2022-09-03T09:07:01.896Z,54.55
2022-09-03T09:08:10.114Z,55.41
2022-09-03T09:09:35.899Z,54.72
2022-09-03T09:10:58.433Z,53.23
2022-09-03T09:12:21.437Z,53.56
2022-09-03T09:13:43.599Z,53.79
2022-09-03T09:15:01.656Z,53.56
2022-09-03T09:16:12.425Z,54.13
2022-09-03T09:17:37.359Z,53.63
2022-09-03T09:18:48.538Z,53.42
2022-09-03T09:20:01.938Z,52.86
2022-09-03T09:21:09.632Z,53.51
2022-09-03T09:22:15.090Z,52.06
2022-09-03T09:23:40.838Z,52.62
2022-09-03T09:24:44.536Z,52.54
2022-09-03T09:25:50.207Z,52.39
2022-09-03T09:27:03.038Z,52.58
2022-09-03T09:28:23.507Z,53.01
2022-09-03T09:29:27.612Z,53.26
2022-09-03T09:30:30.822Z,53.39
2022-09-03T09:31:32.584Z,53.46
2022-09-03T09:32:35.082Z,54.09
2022-09-03T09:33:36.746Z,54.25
2022-09-03T09:34:38.632Z,52.37
2022-09-03T09:35:42.541Z,52.44
2022-09-03T09:36:54.422Z,51.68
2022-09-03T09:37:58.487Z,51.71
2022-09-03T09:39:09.673Z,51.95
2022-09-03T09:40:11.310Z,51.66
2022-09-03T09:41:28.980Z,51.71
2022-09-03T09:42:31.825Z,51.98
2022-09-03T09:43:33.677Z,52.73
2022-09-03T09:44:36.481Z,52.50
2022-09-03T09:45:42.535Z,52.07
2022-09-03T09:46:44.631Z,52.11
2022-09-03T09:47:46.329Z,52.12
2022-09-03T09:48:52.932Z,52.28
2022-09-03T09:49:59.289Z,52.14
2022-09-03T09:51:11.069Z,51.39
2022-09-03T09:52:14.039Z,49.70
2022-09-03T09:53:18.183Z,50.01
2022-09-03T09:54:20.286Z,49.94
2022-09-03T09:55:23.745Z,50.54
2022-09-03T09:56:25.749Z,49.91
2022-09-03T09:57:27.463Z,49.18
2022-09-03T09:58:30.991Z,48.91
2022-09-03T09:59:34.351Z,48.12
2022-09-03T10:00:37.837Z,47.62
2022-09-03T10:01:40.856Z,46.86
2022-09-03T10:02:54.605Z,48.08
2022-09-03T10:03:57.406Z,48.74
2022-09-03T10:05:02.428Z,49.27
2022-09-03T10:06:26.684Z,47.84
2022-09-03T10:07:31.439Z,46.94
2022-09-03T10:08:33.156Z,47.33
2022-09-03T10:09:34.823Z,47.76
2022-09-03T10:10:40.049Z,47.97
2022-09-03T10:11:45.157Z,48.13
2022-09-03T10:13:03.077Z,47.43
2022-09-03T10:14:04.741Z,47.65
2022-09-03T10:15:21.524Z,45.70
2022-09-03T10:16:28.094Z,45.60
2022-09-03T10:17:51.209Z,45.50
2022-09-03T10:19:05.034Z,46.27
2022-09-03T10:20:37.438Z,46.29
2022-09-03T10:22:07.910Z,46.62
2022-09-03T10:23:25.901Z,47.00
2022-09-03T10:24:53.308Z,47.05
2022-09-03T10:25:58.203Z,46.43
2022-09-03T10:26:59.840Z,46.88
2022-09-03T10:28:02.184Z,47.85
2022-09-03T10:29:05.942Z,47.54
2022-09-03T10:30:08.912Z,47.48
2022-09-03T10:31:44.359Z,46.35
2022-09-03T10:33:26.546Z,46.26
2022-09-03T10:35:04.586Z,47.33
2022-09-03T10:36:33.508Z,47.39
2022-09-03T10:37:38.884Z,47.56
2022-09-03T10:38:40.594Z,47.38
2022-09-03T10:39:52.573Z,46.44
2022-09-03T10:40:58.655Z,46.66
2022-09-03T10:42:22.239Z,45.42
2022-09-03T10:43:45.920Z,44.72
2022-09-03T10:45:05.425Z,44.88
2022-09-03T10:46:23.837Z,45.63
2022-09-03T10:47:35.964Z,44.90
2022-09-03T10:48:55.693Z,44.28
2022-09-03T10:50:18.345Z,44.38
2022-09-03T10:51:34.105Z,44.65
2022-09-03T10:52:51.125Z,44.17
2022-09-03T10:53:55.459Z,44.30
2022-09-03T10:55:38.734Z,44.58
2022-09-03T10:56:51.049Z,45.42
2022-09-03T10:58:24.756Z,44.27
2022-09-03T10:59:46.278Z,44.60
2022-09-03T11:00:53.067Z,45.13
2022-09-03T11:02:00.557Z,45.06
2022-09-03T11:03:26.461Z,44.51
2022-09-03T11:04:49.412Z,44.72
2022-09-03T11:05:52.789Z,43.21
2022-09-03T11:06:55.430Z,43.45
2022-09-03T11:07:58.687Z,43.77
2022-09-03T11:09:19.682Z,43.30
2022-09-03T11:10:32.198Z,43.54
2022-09-03T11:11:38.371Z,43.76
2022-09-03T11:12:43.771Z,42.73
2022-09-03T11:13:49.181Z,43.47
2022-09-03T11:14:56.645Z,42.64
2022-09-03T11:16:05.168Z,43.38
2022-09-03T11:17:29.568Z,43.07
2022-09-03T11:18:41.299Z,42.37
2022-09-03T11:19:51.311Z,42.56
2022-09-03T11:20:55.263Z,43.11
2022-09-03T11:21:56.888Z,44.04
2022-09-03T11:23:01.553Z,44.40
2022-09-03T11:24:14.597Z,43.09
2022-09-03T11:25:17.661Z,43.02
2022-09-03T11:26:19.962Z,43.27
2022-09-03T11:27:36.336Z,43.86
2022-09-03T11:29:12.733Z,43.38
2022-09-03T11:30:15.582Z,42.70
2022-09-03T11:31:41.455Z,43.12
2022-09-03T11:32:56.877Z,43.71
2022-09-03T11:34:34.936Z,44.52
2022-09-03T11:35:36.516Z,42.86
2022-09-03T11:36:38.767Z,41.71
2022-09-03T11:38:07.713Z,40.20
2022-09-03T11:39:33.830Z,41.03
2022-09-03T11:40:37.149Z,41.35
2022-09-03T11:41:39.888Z,40.93
2022-09-03T11:42:42.305Z,41.65
2022-09-03T11:43:44.419Z,40.19
2022-09-03T11:44:51.365Z,40.45
2022-09-03T11:46:11.966Z,39.98
2022-09-03T11:47:37.831Z,41.00
2022-09-03T11:48:46.719Z,40.84
2022-09-03T11:49:50.916Z,40.00
2022-09-03T11:50:54.421Z,41.31
2022-09-03T11:51:59.652Z,41.00
2022-09-03T11:53:14.140Z,41.75
2022-09-03T11:54:23.838Z,42.33
2022-09-03T11:55:55.792Z,43.42
2022-09-03T11:57:13.294Z,43.09
2022-09-03T11:58:34.848Z,43.77
2022-09-03T11:59:36.490Z,43.88
2022-09-03T12:00:38.934Z,43.89
2022-09-03T12:02:11.791Z,43.82
2022-09-03T12:03:16.025Z,44.08
2022-09-03T12:04:18.255Z,44.12
2022-09-03T12:06:07.154Z,42.38
2022-09-03T12:07:14.331Z,44.08
2022-09-03T12:08:28.871Z,41.36
2022-09-03T12:10:00.488Z,41.31
2022-09-03T12:11:21.346Z,40.84
2022-09-03T12:12:36.572Z,40.48
2022-09-03T12:13:57.868Z,41.64
2022-09-03T12:15:03.841Z,42.52
2022-09-03T12:16:48.019Z,41.49
2022-09-03T12:18:21.091Z,41.25
2022-09-03T12:19:54.396Z,40.68
2022-09-03T12:20:56.159Z,41.25
2022-09-03T12:21:57.841Z,39.09
2022-09-03T12:22:59.547Z,40.52
2022-09-03T12:24:02.079Z,40.11
2022-09-03T12:25:13.948Z,39.53
2022-09-03T12:26:20.588Z,40.14
2022-09-03T12:27:25.452Z,40.25
2022-09-03T12:28:27.110Z,39.99
2022-09-03T12:29:31.105Z,39.28
2022-09-03T12:30:32.905Z,38.39
2022-09-03T12:31:45.138Z,39.26
2022-09-03T12:32:48.399Z,39.88
2022-09-03T12:33:54.628Z,39.70
2022-09-03T12:34:56.267Z,39.90
2022-09-03T12:35:59.562Z,41.43
2022-09-03T12:37:01.659Z,40.87
2022-09-03T12:38:06.877Z,40.59
2022-09-03T12:39:17.102Z,39.67
2022-09-03T12:40:23.923Z,39.20
2022-09-03T12:41:28.067Z,38.87
2022-09-03T12:42:30.993Z,38.68
2022-09-03T12:43:41.151Z,39.30
2022-09-03T12:44:44.176Z,38.81
2022-09-03T12:48:35.807Z,38.81
2022-09-03T12:49:38.975Z,38.91
2022-09-03T12:50:42.504Z,38.78
2022-09-03T12:51:54.411Z,38.85
2022-09-03T12:52:59.941Z,39.29
2022-09-03T12:54:02.152Z,38.07
2022-09-03T12:55:27.930Z,38.81
2022-09-03T12:56:34.956Z,39.29
2022-09-03T12:57:41.772Z,38.31
2022-09-03T12:59:07.353Z,37.93
2022-09-03T13:00:10.663Z,38.27
2022-09-03T13:01:19.846Z,38.41
2022-09-03T13:02:26.347Z,38.10
2022-09-03T13:03:50.275Z,38.24
2022-09-03T13:04:52.883Z,37.38
2022-09-03T13:05:57.372Z,38.19
2022-09-03T13:07:28.050Z,38.41
2022-09-03T13:08:32.464Z,38.26
2022-09-03T13:09:36.649Z,38.01
2022-09-03T13:10:41.402Z,38.19
2022-09-03T13:11:45.243Z,38.91
2022-09-03T13:12:53.435Z,39.17
2022-09-03T13:14:05.458Z,41.01
2022-09-03T13:15:08.823Z,40.32
2022-09-03T13:16:19.054Z,40.39
2022-09-03T13:18:00.196Z,40.33
2022-09-03T13:19:09.789Z,40.38
2022-09-03T13:20:34.119Z,40.27
2022-09-03T13:22:00.341Z,39.97
2022-09-03T13:23:40.611Z,40.40
2022-09-03T13:25:00.844Z,38.44
2022-09-03T13:26:08.971Z,39.02
2022-09-03T13:27:18.223Z,39.50
2022-09-03T13:28:27.710Z,40.98
2022-09-03T13:29:58.320Z,40.13
2022-09-03T13:31:06.629Z,39.47
2022-09-03T13:32:26.532Z,39.55
2022-09-03T13:33:50.778Z,38.81
2022-09-03T13:34:58.294Z,39.85
2022-09-03T13:36:02.620Z,39.56
2022-09-03T13:37:50.458Z,40.29
2022-09-03T13:38:54.685Z,41.01
2022-09-03T13:40:02.694Z,40.78
2022-09-03T13:41:19.839Z,39.59
2022-09-03T13:42:31.413Z,39.47
2022-09-03T13:43:43.744Z,39.06
2022-09-03T13:45:02.204Z,39.55
2022-09-03T13:46:07.664Z,40.44
2022-09-03T13:47:33.306Z,40.71
2022-09-03T13:49:00.077Z,41.50
2022-09-03T13:50:23.649Z,40.60
2022-09-03T13:51:32.966Z,40.34
2022-09-03T13:52:43.094Z,40.01
2022-09-03T13:54:10.028Z,38.77
2022-09-03T13:55:23.251Z,37.75
2022-09-03T13:56:43.218Z,37.11
2022-09-03T13:57:51.284Z,37.25
2022-09-03T13:59:17.419Z,37.28
2022-09-03T14:00:43.825Z,37.69
2022-09-03T14:02:10.171Z,38.50
2022-09-03T14:03:33.798Z,37.80
2022-09-03T14:04:41.531Z,37.73
2022-09-03T14:06:07.692Z,37.74
2022-09-03T14:07:13.801Z,37.64
2022-09-03T14:08:58.164Z,37.10
2022-09-03T14:10:28.229Z,37.57
2022-09-03T14:11:38.281Z,37.43
2022-09-03T14:12:49.681Z,37.01
2022-09-03T14:14:10.974Z,36.21
2022-09-03T14:15:29.790Z,36.55
2022-09-03T14:16:38.334Z,36.33
2022-09-03T14:17:59.404Z,36.71
2022-09-03T14:19:07.329Z,36.46
2022-09-03T14:20:32.521Z,36.59
2022-09-03T14:21:45.585Z,37.15
2022-09-03T14:22:53.757Z,36.32
2022-09-03T14:24:05.437Z,36.84
2022-09-03T14:25:14.060Z,36.19
2022-09-03T14:26:35.868Z,36.32
2022-09-03T14:27:40.074Z,35.87
2022-09-03T14:28:49.783Z,36.21
2022-09-03T14:29:54.897Z,36.44
2022-09-03T14:31:29.568Z,36.50
2022-09-03T14:32:59.011Z,36.81
2022-09-03T14:34:03.785Z,36.61
2022-09-03T14:35:29.187Z,36.05
2022-09-03T14:36:53.994Z,36.28
2022-09-03T14:38:07.576Z,36.57
2022-09-03T14:39:27.789Z,36.47
2022-09-03T14:40:55.544Z,36.75
2022-09-03T14:42:04.539Z,37.59
2022-09-03T14:43:43.437Z,38.43